Terminal Aerodrome Forecast
Issued by NWS

Home | Current Version | Previous Version | Graphics & Text | Print | Product List | Glossary On
Versions: 1 2 3 4 5 6 7 8 9 10 11 12 13 14 15 16 17 18 19 20 21 22
000
FTUS43 KTOP 230520
TAFMHK
TAF
KMHK 230520Z 2306/2406 17008KT P6SM SCT025 BKN100 WS010/19035KT
     FM231000 18011KT P6SM BKN025
     FM231300 18012KT P6SM -TSRA BKN023CB
     FM231800 17012KT P6SM VCTS BKN015CB
     FM232200 17010KT P6SM SCT015
     FM240100 17009KT P6SM VCTS BKN030CB=

USA.gov is the U.S. government's official web portal to all federal, state and local government web resources and services.